Terminal Aerodrome Forecast
Issued by NWS Portland, OR

Home | Current Version | Previous Version | Text Only | Print | Product List | Glossary On
Versions: 1 2 3 4 5 6 7 8 9 10 11 12 13 14 15 16 17 18 19 20 21 22 23 24 25 26 27 28 29 30
000
FTUS46 KPQR 171738
TAFSLE
TAF
KSLE 171738Z 1718/1818 18006KT P6SM SCT015 OVC035
     FM180400 18003KT 3SM BR SCT010 OVC050
     FM180800 18006KT 6SM -RA BR BKN022 OVC035=

USA.gov is the U.S. government's official web portal to all federal, state and local government web resources and services.